Time;durP1;ratioP1;P1;durP2;ratioP2;P2;SDS_P1;SDS_P2;PMS_P1;PMS_P2;Temp;Humidity;BMP_temperature;BMP_pressure;BME280_temperature;BME280_humidity;BME280_pressure;Samples;Min_cycle;Max_cycle;Signal;HPM_P1;HPM_P2
2023/10/04 00:01:10;;;;;;;0.00;0.00;;;12.60;99.90;;;;;;5094345;28;20176;-63
2023/10/04 00:03:38;;;;;;;0.00;0.00;;;12.60;99.90;;;;;;5094307;28;20176;-63
2023/10/04 00:06:03;;;;;;;0.00;0.00;;;12.60;99.90;;;;;;5094474;28;20202;-63
2023/10/04 00:08:29;;;;;;;0.00;0.00;;;12.60;99.90;;;;;;5094155;28;20208;-64
2023/10/04 00:10:55;;;;;;;0.00;0.00;;;12.60;99.90;;;;;;5094752;28;20191;-64
2023/10/04 00:13:21;;;;;;;0.00;0.00;;;12.60;99.90;;;;;;5094642;28;20176;-64
2023/10/04 00:15:47;;;;;;;0.00;0.00;;;12.60;99.90;;;;;;5094981;28;20172;-64
2023/10/04 00:18:14;;;;;;;0.00;0.00;;;12.50;99.90;;;;;;5094500;28;20180;-64
2023/10/04 00:20:40;;;;;;;0.00;0.00;;;12.50;99.90;;;;;;5097914;28;20191;-64
2023/10/04 00:23:06;;;;;;;0.00;0.00;;;12.50;99.90;;;;;;5101510;28;20176;-64
2023/10/04 00:25:33;;;;;;;0.00;0.00;;;12.50;99.90;;;;;;5093577;28;20180;-65
2023/10/04 00:27:59;;;;;;;0.00;0.00;;;12.40;99.90;;;;;;5093551;28;20188;-64
2023/10/04 00:30:27;;;;;;;0.00;0.00;;;12.40;99.90;;;;;;5093539;28;20183;-64
2023/10/04 00:32:54;;;;;;;0.00;0.00;;;12.40;99.90;;;;;;5092557;28;20192;-64
2023/10/04 00:35:21;;;;;;;0.00;0.00;;;12.30;99.90;;;;;;5093378;28;20180;-64
2023/10/04 00:37:55;;;;;;;0.00;0.00;;;12.30;99.90;;;;;;5093119;28;20226;-64
2023/10/04 00:40:30;;;;;;;0.00;0.00;;;12.20;99.90;;;;;;5093404;28;20235;-64
2023/10/04 00:42:57;;;;;;;0.00;0.00;;;12.10;99.90;;;;;;5092347;28;20577;-64
2023/10/04 00:45:24;;;;;;;0.00;0.00;;;12.10;99.90;;;;;;5093318;28;20730;-64
2023/10/04 00:47:54;;;;;;;0.00;0.00;;;12.10;99.90;;;;;;5089989;28;20234;-64
2023/10/04 00:50:27;;;;;;;0.00;0.00;;;12.00;99.90;;;;;;5092128;28;20172;-64
2023/10/04 00:53:02;;;;;;;0.00;0.00;;;12.00;99.90;;;;;;5093452;28;20179;-63
2023/10/04 00:55:29;;;;;;;0.00;0.00;;;12.00;99.90;;;;;;5087660;28;20630;-63
2023/10/04 00:57:56;;;;;;;0.00;0.00;;;12.00;99.90;;;;;;5091381;28;20180;-63
2023/10/04 01:00:22;;;;;;;0.00;0.00;;;11.90;99.90;;;;;;5091692;28;20211;-63
2023/10/04 01:02:48;;;;;;;0.00;0.00;;;11.90;99.90;;;;;;5092991;28;20703;-63
2023/10/04 01:05:20;;;;;;;0.00;0.00;;;11.90;99.90;;;;;;5093278;28;20179;-63
2023/10/04 01:07:48;;;;;;;0.00;0.00;;;11.80;99.90;;;;;;5092888;28;20623;-63
2023/10/04 01:10:15;;;;;;;0.00;0.00;;;11.80;99.90;;;;;;5093139;28;20215;-63
2023/10/04 01:12:47;;;;;;;0.00;0.00;;;11.80;99.90;;;;;;5092599;28;20221;-62
2023/10/04 01:15:29;;;;;;;0.00;0.00;;;11.70;99.90;;;;;;5092880;28;20199;-62
2023/10/04 01:17:55;;;;;;;0.00;0.00;;;11.70;99.90;;;;;;5092764;28;20516;-61
2023/10/04 01:20:27;;;;;;;0.00;0.00;;;11.70;99.90;;;;;;5092511;28;20215;-62
2023/10/04 01:23:00;;;;;;;0.30;0.30;;;11.70;99.90;;;;;;5092605;28;20184;-62
2023/10/04 01:25:31;;;;;;;0.00;0.00;;;11.70;99.90;;;;;;5092591;28;20528;-62
2023/10/04 01:27:58;;;;;;;0.00;0.00;;;11.70;99.90;;;;;;5091472;28;20269;-61
2023/10/04 01:30:24;;;;;;;0.00;0.00;;;11.60;99.90;;;;;;5092467;28;20180;-61
2023/10/04 01:32:50;;;;;;;0.00;0.00;;;11.60;99.90;;;;;;5092509;28;20179;-62
2023/10/04 01:35:23;;;;;;;0.00;0.00;;;11.60;99.90;;;;;;5092424;28;20172;-62
2023/10/04 01:37:49;;;;;;;0.00;0.00;;;11.60;99.90;;;;;;5092007;28;20262;-63
2023/10/04 01:40:18;;;;;;;0.00;0.00;;;11.60;99.90;;;;;;5092310;28;20212;-61
2023/10/04 01:42:45;;;;;;;0.00;0.00;;;11.60;99.90;;;;;;5092390;28;20176;-62
2023/10/04 01:45:16;;;;;;;0.10;0.10;;;11.60;99.90;;;;;;5092343;28;20188;-62
2023/10/04 01:47:43;;;;;;;0.30;0.30;;;11.60;99.90;;;;;;5091900;28;20190;-62
2023/10/04 01:50:10;;;;;;;0.00;0.00;;;11.60;99.90;;;;;;5090837;28;20179;-61
2023/10/04 01:52:38;;;;;;;0.00;0.00;;;11.60;99.90;;;;;;5092072;28;20168;-62
2023/10/04 01:55:10;;;;;;;0.00;0.00;;;11.60;99.90;;;;;;5091977;28;20261;-62
2023/10/04 01:57:38;;;;;;;0.00;0.00;;;11.50;99.90;;;;;;5092050;28;20704;-63
2023/10/04 02:00:06;;;;;;;0.00;0.00;;;11.50;99.90;;;;;;5091997;28;20219;-63
2023/10/04 02:02:31;;;;;;;0.00;0.00;;;11.50;99.90;;;;;;5091480;28;20677;-62
2023/10/04 02:04:57;;;;;;;0.00;0.00;;;11.40;99.90;;;;;;5092041;28;20187;-62
2023/10/04 02:07:23;;;;;;;0.00;0.00;;;11.40;99.90;;;;;;5073793;28;20255;-62
2023/10/04 02:09:51;;;;;;;0.00;0.00;;;11.40;99.90;;;;;;5091863;28;20610;-63
2023/10/04 02:12:22;;;;;;;0.00;0.00;;;11.30;99.90;;;;;;5091743;28;20184;-62
2023/10/04 02:14:48;;;;;;;0.00;0.00;;;11.30;99.90;;;;;;5091783;28;20254;-62
2023/10/04 02:17:17;;;;;;;0.00;0.00;;;11.30;99.90;;;;;;5091457;28;20764;-63
2023/10/04 02:19:43;;;;;;;0.00;0.00;;;11.20;99.90;;;;;;5091572;28;20616;-63
2023/10/04 02:22:10;;;;;;;0.08;0.08;;;11.20;99.90;;;;;;5091615;28;20172;-62
2023/10/04 02:24:38;;;;;;;0.10;0.10;;;11.20;99.90;;;;;;5091284;28;20188;-63
2023/10/04 02:27:07;;;;;;;0.00;0.00;;;11.10;99.90;;;;;;5091418;28;20176;-62
2023/10/04 02:29:34;;;;;;;0.00;0.00;;;11.10;99.90;;;;;;5091407;28;20262;-64
2023/10/04 02:31:59;;;;;;;0.03;0.03;;;11.10;99.90;;;;;;5091299;28;20176;-63
2023/10/04 02:34:26;;;;;;;0.00;0.00;;;11.00;99.90;;;;;;5090208;28;20194;-63
2023/10/04 02:36:52;;;;;;;0.00;0.00;;;11.00;99.90;;;;;;5091138;28;20184;-63
2023/10/04 02:39:17;;;;;;;0.00;0.00;;;11.00;99.90;;;;;;5090903;28;20592;-63
2023/10/04 02:41:47;;;;;;;0.00;0.00;;;11.00;99.90;;;;;;5091143;28;20184;-63
2023/10/04 02:44:15;;;;;;;0.00;0.00;;;11.00;99.90;;;;;;5091182;28;20210;-62
2023/10/04 02:46:44;;;;;;;0.00;0.00;;;10.90;99.90;;;;;;5090910;28;20180;-62
2023/10/04 02:49:10;;;;;;;0.10;0.10;;;10.90;99.90;;;;;;5091396;28;20211;-62
2023/10/04 02:51:36;;;;;;;0.00;0.00;;;10.90;99.90;;;;;;5091270;28;20226;-63
2023/10/04 02:54:04;;;;;;;0.00;0.00;;;10.90;99.90;;;;;;5091101;28;20180;-63
2023/10/04 02:56:30;;;;;;;0.00;0.00;;;10.80;99.90;;;;;;5090664;28;20180;-63
2023/10/04 02:58:55;;;;;;;0.00;0.00;;;10.80;99.90;;;;;;5090835;28;20212;-63
2023/10/04 03:01:26;;;;;;;0.00;0.00;;;10.70;99.90;;;;;;5091005;28;20210;-64
2023/10/04 03:03:52;;;;;;;0.05;0.05;;;10.70;99.90;;;;;;5091057;28;20179;-62
2023/10/04 03:06:22;;;;;;;0.00;0.00;;;10.80;99.90;;;;;;5090763;28;20184;-64
2023/10/04 03:08:50;;;;;;;0.00;0.00;;;10.70;99.90;;;;;;5091093;28;20188;-63
2023/10/04 03:11:16;;;;;;;0.00;0.00;;;10.70;99.90;;;;;;5090558;28;20183;-63
2023/10/04 03:13:42;;;;;;;0.00;0.00;;;10.70;99.90;;;;;;5094816;28;20188;-63
2023/10/04 03:16:08;;;;;;;0.00;0.00;;;10.60;99.90;;;;;;5095358;28;20203;-63
2023/10/04 03:18:37;;;;;;;0.00;0.00;;;10.60;99.90;;;;;;5095002;28;20261;-64
2023/10/04 03:23:40;;;;;;;0.00;0.00;;;10.60;99.90;;;;;;5095153;28;20176;-64
2023/10/04 03:26:06;;;;;;;0.00;0.00;;;10.60;99.90;;;;;;5095103;28;20202;-63
2023/10/04 03:28:33;;;;;;;0.00;0.00;;;10.50;99.90;;;;;;5094985;28;20647;-63
2023/10/04 03:31:04;;;;;;;0.00;0.00;;;10.50;99.90;;;;;;5093581;28;20172;-63
2023/10/04 03:33:32;;;;;;;0.00;0.00;;;10.50;99.90;;;;;;5094583;28;20209;-64
2023/10/04 03:35:58;;;;;;;0.00;0.00;;;10.50;99.90;;;;;;5096522;28;20176;-64
2023/10/04 03:38:25;;;;;;;0.00;0.00;;;10.40;99.90;;;;;;5094675;28;20232;-65
2023/10/04 03:40:55;;;;;;;0.00;0.00;;;10.40;99.90;;;;;;5093694;28;20666;-64
2023/10/04 03:43:20;;;;;;;0.00;0.00;;;10.50;99.90;;;;;;5094866;28;20172;-64
2023/10/04 03:45:46;;;;;;;0.00;0.00;;;10.40;99.90;;;;;;5093685;28;20638;-64
2023/10/04 03:48:17;;;;;;;0.00;0.00;;;10.40;99.90;;;;;;5092838;28;20654;-64
2023/10/04 03:50:50;;;;;;;0.00;0.00;;;10.40;99.90;;;;;;5093981;28;20233;-66
2023/10/04 03:53:16;;;;;;;0.00;0.00;;;10.40;99.90;;;;;;5096962;28;20198;-61
2023/10/04 03:55:43;;;;;;;0.00;0.00;;;10.40;99.90;;;;;;5102473;28;20225;-61
2023/10/04 03:58:12;;;;;;;0.00;0.00;;;10.30;99.90;;;;;;5094912;28;20578;-62
2023/10/04 04:00:39;;;;;;;0.00;0.00;;;10.30;99.90;;;;;;5093954;28;20302;-62
2023/10/04 04:03:05;;;;;;;0.00;0.00;;;10.30;99.90;;;;;;5094412;28;20267;-63
2023/10/04 04:05:32;;;;;;;0.00;0.00;;;10.30;99.90;;;;;;5094202;28;20184;-63
2023/10/04 04:07:58;;;;;;;0.00;0.00;;;10.30;99.90;;;;;;5094091;28;20179;-60
2023/10/04 04:10:24;;;;;;;0.00;0.00;;;10.20;99.90;;;;;;5093931;28;20229;-62
2023/10/04 04:12:50;;;;;;;0.00;0.00;;;10.20;99.90;;;;;;5093429;28;20176;-63
2023/10/04 04:15:17;;;;;;;0.00;0.00;;;10.20;99.90;;;;;;5094155;28;20179;-59
2023/10/04 04:17:46;;;;;;;0.00;0.00;;;10.20;99.90;;;;;;5093638;28;20176;-59
2023/10/04 04:20:18;;;;;;;0.00;0.00;;;10.20;99.90;;;;;;5086088;28;20211;-61
2023/10/04 04:22:50;;;;;;;0.00;0.00;;;10.20;99.90;;;;;;5079430;28;20213;-60
2023/10/04 04:25:19;;;;;;;0.00;0.00;;;10.20;99.90;;;;;;5093753;28;20180;-60
2023/10/04 04:27:45;;;;;;;0.00;0.00;;;10.10;99.90;;;;;;5093954;28;20196;-60
2023/10/04 04:30:23;;;;;;;0.00;0.00;;;10.10;99.90;;;;;;5093936;28;20182;-60
2023/10/04 04:32:52;;;;;;;0.00;0.00;;;10.10;99.90;;;;;;5090199;28;20650;-61
2023/10/04 04:35:34;;;;;;;0.00;0.00;;;10.10;99.90;;;;;;5093854;28;20217;-60
2023/10/04 04:38:15;;;;;;;0.30;0.30;;;10.10;99.90;;;;;;5093683;28;20583;-61
2023/10/04 04:40:46;;;;;;;0.00;0.00;;;10.10;99.90;;;;;;5093555;28;20215;-61
2023/10/04 04:43:25;;;;;;;0.00;0.00;;;10.00;99.90;;;;;;5093903;28;20183;-61
2023/10/04 04:45:56;;;;;;;0.10;0.10;;;10.10;99.90;;;;;;5093709;28;20176;-61
2023/10/04 04:48:24;;;;;;;0.00;0.00;;;10.10;99.90;;;;;;5093791;28;20180;-61
2023/10/04 04:50:55;;;;;;;0.00;0.00;;;10.00;99.90;;;;;;5093540;28;20172;-61
2023/10/04 04:53:29;;;;;;;0.00;0.00;;;10.00;99.90;;;;;;5092871;28;20194;-61
2023/10/04 04:55:55;;;;;;;0.00;0.00;;;10.00;99.90;;;;;;5079608;28;20188;-60
2023/10/04 04:58:22;;;;;;;1.45;0.65;;;10.00;99.90;;;;;;5073442;28;20261;-60
2023/10/04 05:00:55;;;;;;;0.00;0.00;;;10.00;99.90;;;;;;5073177;28;20311;-59
2023/10/04 05:03:20;;;;;;;0.00;0.00;;;10.00;99.90;;;;;;5073306;28;20516;-60
2023/10/04 05:05:49;;;;;;;1.35;0.98;;;9.90;99.90;;;;;;5073129;28;20268;-60
2023/10/04 05:08:16;;;;;;;0.00;0.00;;;9.90;99.90;;;;;;5072939;28;20603;-60
2023/10/04 05:10:44;;;;;;;0.00;0.00;;;9.90;99.90;;;;;;5072965;28;20223;-60
2023/10/04 05:13:13;;;;;;;0.00;0.00;;;9.90;99.90;;;;;;5073124;28;20211;-60
2023/10/04 05:15:43;;;;;;;0.00;0.00;;;9.90;99.90;;;;;;5073114;28;20214;-60
2023/10/04 05:18:15;;;;;;;0.00;0.00;;;9.90;99.90;;;;;;5073112;28;20250;-60
2023/10/04 05:20:45;;;;;;;0.05;0.05;;;9.90;99.90;;;;;;5072700;28;20672;-60
2023/10/04 05:23:11;;;;;;;0.13;0.13;;;9.90;99.90;;;;;;5072968;28;20184;-60
2023/10/04 05:25:37;;;;;;;0.00;0.00;;;9.90;99.90;;;;;;5072564;28;20177;-60
2023/10/04 05:28:09;;;;;;;0.00;0.00;;;9.90;99.90;;;;;;5084155;28;20522;-60
2023/10/04 05:30:35;;;;;;;0.00;0.00;;;9.90;99.90;;;;;;5092816;28;20229;-60
2023/10/04 05:33:01;;;;;;;0.00;0.00;;;9.90;99.90;;;;;;5092967;28;20179;-61
2023/10/04 05:35:27;;;;;;;0.00;0.00;;;9.90;99.90;;;;;;5092401;28;20168;-61
2023/10/04 05:37:52;;;;;;;0.00;0.00;;;9.90;99.90;;;;;;5092734;28;20220;-60
2023/10/04 05:40:25;;;;;;;0.00;0.00;;;9.90;99.90;;;;;;5091583;28;20265;-61
2023/10/04 05:42:53;;;;;;;0.08;0.08;;;9.90;99.90;;;;;;5092631;28;20241;-60
2023/10/04 05:45:19;;;;;;;0.20;0.20;;;9.90;99.90;;;;;;5092791;28;20262;-61
2023/10/04 05:47:45;;;;;;;0.00;0.00;;;10.00;99.90;;;;;;5091400;28;20508;-62
2023/10/04 05:50:13;;;;;;;0.00;0.00;;;10.00;99.90;;;;;;5092650;28;20180;-60
2023/10/04 05:52:39;;;;;;;0.00;0.00;;;10.10;99.90;;;;;;5092526;28;20169;-61
2023/10/04 05:55:08;;;;;;;0.00;0.00;;;10.10;99.90;;;;;;5092468;28;20173;-61
2023/10/04 05:57:35;;;;;;;0.00;0.00;;;10.10;99.90;;;;;;5092326;28;20263;-62
2023/10/04 06:00:06;;;;;;;0.00;0.00;;;10.10;99.90;;;;;;5092324;28;20211;-62
2023/10/04 06:02:32;;;;;;;0.00;0.00;;;10.20;99.90;;;;;;5092491;28;20177;-62
2023/10/04 06:04:57;;;;;;;2.20;0.55;;;10.20;99.90;;;;;;5092590;28;20532;-62
2023/10/04 06:07:23;;;;;;;0.00;0.00;;;10.20;99.90;;;;;;5092374;28;20172;-61
2023/10/04 06:09:50;;;;;;;0.00;0.00;;;10.30;99.90;;;;;;5092160;28;20267;-61
2023/10/04 06:12:16;;;;;;;0.00;0.00;;;10.30;99.90;;;;;;5092181;28;20191;-61
2023/10/04 06:14:41;;;;;;;0.63;0.63;;;10.40;99.90;;;;;;5092160;28;20175;-61
2023/10/04 06:17:07;;;;;;;0.00;0.00;;;10.50;99.90;;;;;;5090975;28;20683;-62
2023/10/04 06:19:33;;;;;;;0.00;0.00;;;10.60;99.90;;;;;;5091961;28;20207;-61
2023/10/04 06:21:59;;;;;;;0.00;0.00;;;10.70;99.90;;;;;;5092056;28;20639;-60
2023/10/04 06:24:24;;;;;;;0.00;0.00;;;10.80;99.90;;;;;;5091930;28;20627;-61
2023/10/04 06:26:50;;;;;;;0.10;0.10;;;10.90;99.90;;;;;;5091971;28;20191;-61
2023/10/04 06:29:15;;;;;;;0.10;0.10;;;11.00;99.90;;;;;;5091976;28;20195;-61
2023/10/04 06:31:41;;;;;;;0.00;0.00;;;11.10;99.90;;;;;;5091930;28;20532;-61
2023/10/04 06:34:07;;;;;;;0.00;0.00;;;11.30;99.90;;;;;;5092074;28;20214;-61
2023/10/04 06:36:33;;;;;;;0.00;0.00;;;11.50;99.90;;;;;;5092121;28;20180;-61
2023/10/04 06:38:59;;;;;;;0.00;0.00;;;11.70;99.90;;;;;;5091619;28;20245;-61
2023/10/04 06:41:26;;;;;;;0.00;0.00;;;11.90;99.90;;;;;;5091937;28;20646;-61
2023/10/04 06:43:52;;;;;;;0.00;0.00;;;12.30;99.90;;;;;;5091756;28;20631;-61
2023/10/04 06:46:18;;;;;;;0.00;0.00;;;12.60;99.90;;;;;;5091117;28;20171;-61
2023/10/04 06:48:45;;;;;;;0.00;0.00;;;12.80;99.90;;;;;;5091791;28;20164;-61
2023/10/04 06:51:11;;;;;;;0.00;0.00;;;12.90;99.90;;;;;;5091811;28;20169;-61
2023/10/04 06:53:41;;;;;;;0.00;0.00;;;13.00;99.90;;;;;;5091548;28;20255;-60
2023/10/04 06:56:06;;;;;;;0.00;0.00;;;13.30;99.90;;;;;;5091665;28;20542;-60
2023/10/04 06:58:32;;;;;;;0.00;0.00;;;13.70;99.90;;;;;;5091494;28;20255;-61
2023/10/04 07:00:58;;;;;;;0.00;0.00;;;14.10;99.90;;;;;;5091770;28;20172;-61
2023/10/04 07:03:26;;;;;;;0.00;0.00;;;14.30;99.90;;;;;;5091744;28;20164;-61
2023/10/04 07:05:51;;;;;;;0.00;0.00;;;14.40;99.90;;;;;;5091619;28;20198;-61
2023/10/04 07:08:17;;;;;;;0.00;0.00;;;14.40;99.90;;;;;;5091649;28;20168;-60
2023/10/04 07:10:44;;;;;;;0.00;0.00;;;14.40;99.90;;;;;;5091512;28;20187;-60
2023/10/04 07:13:10;;;;;;;0.00;0.00;;;14.60;99.90;;;;;;5091637;28;20211;-61
2023/10/04 07:15:39;;;;;;;0.15;0.15;;;15.00;99.90;;;;;;5090166;28;20662;-61
2023/10/04 07:18:06;;;;;;;0.00;0.00;;;15.50;99.90;;;;;;5091529;28;20176;-60
2023/10/04 07:20:32;;;;;;;0.00;0.00;;;15.90;99.90;;;;;;5091257;28;20777;-61
2023/10/04 07:23:03;;;;;;;0.00;0.00;;;16.50;99.90;;;;;;5091314;28;20175;-61
2023/10/04 07:25:34;;;;;;;0.20;0.20;;;16.90;99.90;;;;;;5091317;28;20707;-61
2023/10/04 07:28:02;;;;;;;0.00;0.00;;;17.30;99.90;;;;;;5091443;28;20211;-61
2023/10/04 07:30:29;;;;;;;0.00;0.00;;;17.60;99.90;;;;;;5090145;28;20202;-62
2023/10/04 07:32:57;;;;;;;0.00;0.00;;;18.00;99.90;;;;;;5091304;28;20172;-61
2023/10/04 07:35:25;;;;;;;0.00;0.00;;;18.40;99.90;;;;;;5091380;28;20279;-61
2023/10/04 07:37:55;;;;;;;0.00;0.00;;;18.70;99.90;;;;;;5091040;28;20278;-62
2023/10/04 07:40:22;;;;;;;0.00;0.00;;;19.00;99.90;;;;;;5091101;28;20211;-60
2023/10/04 07:42:52;;;;;;;0.00;0.00;;;19.20;99.90;;;;;;5091092;28;20247;-61
2023/10/04 07:45:23;;;;;;;0.00;0.00;;;19.20;99.90;;;;;;5091275;28;20204;-61
2023/10/04 07:47:50;;;;;;;0.00;0.00;;;19.20;99.90;;;;;;5091167;28;20176;-61
2023/10/04 07:50:22;;;;;;;0.00;0.00;;;19.40;99.90;;;;;;5091014;28;20180;-61
2023/10/04 07:52:50;;;;;;;0.00;0.00;;;19.60;99.80;;;;;;5090920;28;20176;-60
2023/10/04 07:55:18;;;;;;;0.00;0.00;;;19.80;99.60;;;;;;5090895;28;20193;-61
2023/10/04 07:57:48;;;;;;;0.00;0.00;;;20.00;99.20;;;;;;5092314;28;20180;-61
2023/10/04 08:00:15;;;;;;;0.00;0.00;;;20.30;99.00;;;;;;5094682;28;20269;-61
2023/10/04 08:02:51;;;;;;;0.00;0.00;;;20.50;98.50;;;;;;5094575;28;20214;-61
2023/10/04 08:05:23;;;;;;;0.00;0.00;;;20.70;98.50;;;;;;5094582;28;20187;-61
2023/10/04 08:07:56;;;;;;;0.00;0.00;;;20.90;97.80;;;;;;5094613;28;20191;-62
2023/10/04 08:10:25;;;;;;;0.00;0.00;;;20.90;96.70;;;;;;5094794;28;20173;-61
2023/10/04 08:12:53;;;;;;;0.00;0.00;;;20.90;96.90;;;;;;5094501;28;20730;-62
2023/10/04 08:15:19;;;;;;;0.00;0.00;;;21.00;97.40;;;;;;5094653;28;20183;-62
2023/10/04 08:17:49;;;;;;;0.00;0.00;;;21.20;97.10;;;;;;5094455;28;20168;-61
2023/10/04 08:20:15;;;;;;;0.00;0.00;;;21.30;96.70;;;;;;5094227;28;20222;-62
2023/10/04 08:22:42;;;;;;;0.00;0.00;;;21.60;97.20;;;;;;5094325;28;20179;-62
2023/10/04 08:25:21;;;;;;;0.00;0.00;;;21.70;96.90;;;;;;5094439;28;20631;-62
2023/10/04 08:27:47;;;;;;;0.00;0.00;;;22.00;96.50;;;;;;5094222;28;20258;-61
2023/10/04 08:30:15;;;;;;;0.15;0.10;;;22.00;95.30;;;;;;5094038;28;20187;-61
2023/10/04 08:32:43;;;;;;;0.00;0.00;;;21.30;94.60;;;;;;5094096;28;20259;-61
2023/10/04 08:35:21;;;;;;;0.00;0.00;;;21.00;95.20;;;;;;5094155;28;20175;-60
2023/10/04 08:37:49;;;;;;;0.00;0.00;;;20.80;95.70;;;;;;5093929;28;20311;-61
2023/10/04 08:40:18;;;;;;;0.00;0.00;;;20.90;96.70;;;;;;5093880;28;20250;-61
2023/10/04 08:42:45;;;;;;;0.00;0.00;;;21.00;96.30;;;;;;5093967;28;20568;-61
2023/10/04 08:45:11;;;;;;;0.00;0.00;;;21.30;96.30;;;;;;5093993;28;20721;-61
2023/10/04 08:47:38;;;;;;;0.00;0.00;;;21.60;95.50;;;;;;5093778;28;20211;-61
2023/10/04 08:50:09;;;;;;;0.00;0.00;;;21.70;95.50;;;;;;5093962;28;20173;-61
2023/10/04 08:52:36;;;;;;;0.00;0.00;;;21.90;95.90;;;;;;5093677;28;20179;-61
2023/10/04 08:55:07;;;;;;;0.00;0.00;;;22.00;95.40;;;;;;5093809;28;20180;-61
2023/10/04 08:57:39;;;;;;;0.00;0.00;;;21.90;94.90;;;;;;5093684;28;20176;-61
2023/10/04 09:00:13;;;;;;;0.00;0.00;;;21.90;94.60;;;;;;5093694;28;20207;-61
2023/10/04 09:02:43;;;;;;;0.00;0.00;;;21.80;94.30;;;;;;5093535;28;20168;-61
2023/10/04 09:05:10;;;;;;;0.00;0.00;;;21.80;93.70;;;;;;5093539;28;20183;-61
2023/10/04 09:07:35;;;;;;;0.00;0.00;;;21.60;95.00;;;;;;5093341;28;20173;-61
2023/10/04 09:10:04;;;;;;;0.00;0.00;;;21.70;95.60;;;;;;5092794;28;20646;-60
2023/10/04 09:12:30;;;;;;;0.00;0.00;;;21.70;95.00;;;;;;5093462;28;20203;-61
2023/10/04 09:14:55;;;;;;;0.00;0.00;;;21.50;94.10;;;;;;5093237;28;20635;-60
2023/10/04 09:17:24;;;;;;;0.00;0.00;;;21.40;94.70;;;;;;5093352;28;20178;-60
2023/10/04 09:19:49;;;;;;;0.00;0.00;;;21.30;94.40;;;;;;5092947;28;20215;-61
2023/10/04 09:22:17;;;;;;;0.00;0.00;;;21.30;93.60;;;;;;5092940;28;20176;-61
2023/10/04 09:24:53;;;;;;;0.00;0.00;;;21.10;94.00;;;;;;5093059;28;20215;-61
2023/10/04 09:27:19;;;;;;;0.00;0.00;;;20.80;94.20;;;;;;5093109;28;20191;-61
2023/10/04 09:29:45;;;;;;;0.00;0.00;;;20.50;93.80;;;;;;5093009;28;20183;-61
2023/10/04 09:32:10;;;;;;;0.00;0.00;;;20.40;94.00;;;;;;5093009;28;20176;-61
2023/10/04 09:34:36;;;;;;;0.00;0.00;;;20.50;94.60;;;;;;5092914;28;20172;-61
2023/10/04 09:37:02;;;;;;;0.00;0.00;;;20.60;94.10;;;;;;5093063;28;20526;-61
2023/10/04 09:39:31;;;;;;;0.00;0.00;;;20.60;94.40;;;;;;5092693;28;20575;-61
2023/10/04 09:41:58;;;;;;;0.00;0.00;;;20.60;94.40;;;;;;5092762;28;20167;-61
2023/10/04 09:44:35;;;;;;;0.00;0.00;;;20.60;95.30;;;;;;5092882;28;20188;-61
2023/10/04 09:47:03;;;;;;;0.00;0.00;;;20.70;95.10;;;;;;5093039;28;20496;-62
2023/10/04 09:49:31;;;;;;;0.00;0.00;;;20.80;95.30;;;;;;5092803;28;20179;-63
2023/10/04 09:52:01;;;;;;;0.00;0.00;;;20.70;94.50;;;;;;5092730;28;20247;-61
2023/10/04 09:54:30;;;;;;;0.00;0.00;;;20.70;95.00;;;;;;5092424;28;20180;-61
2023/10/04 09:56:57;;;;;;;0.00;0.00;;;20.70;93.90;;;;;;5092535;28;20180;-61
2023/10/04 09:59:24;;;;;;;0.00;0.00;;;20.80;94.80;;;;;;5092473;28;20199;-61
2023/10/04 10:01:56;;;;;;;0.00;0.00;;;20.80;94.30;;;;;;5092431;28;20172;-61
2023/10/04 10:04:26;;;;;;;0.00;0.00;;;20.90;94.10;;;;;;5092491;28;20535;-61
2023/10/04 10:07:20;;;;;;;0.00;0.00;;;20.90;93.70;;;;;;5092239;28;20180;-61
2023/10/04 10:10:05;;;;;;;0.00;0.00;;;20.80;94.00;;;;;;5092262;28;20168;-60
2023/10/04 10:12:34;;;;;;;0.00;0.00;;;20.80;94.00;;;;;;5092163;28;20696;-60
2023/10/04 10:15:01;;;;;;;0.00;0.00;;;20.70;94.40;;;;;;5092181;28;20586;-61
2023/10/04 10:17:30;;;;;;;0.10;0.10;;;20.60;93.80;;;;;;5092269;28;20176;-62
2023/10/04 10:19:56;;;;;;;0.00;0.00;;;20.60;93.70;;;;;;5091980;28;20253;-61
2023/10/04 10:22:22;;;;;;;0.00;0.00;;;20.70;93.50;;;;;;5092265;28;20187;-61
2023/10/04 10:25:14;;;;;;;0.00;0.00;;;20.80;93.50;;;;;;5092010;28;20263;-61
2023/10/04 10:27:41;;;;;;;0.00;0.00;;;21.00;93.00;;;;;;5090658;28;20198;-61
2023/10/04 10:30:12;;;;;;;0.00;0.00;;;21.10;93.90;;;;;;5091981;28;20222;-61
2023/10/04 10:32:54;;;;;;;0.00;0.00;;;21.10;93.70;;;;;;5092161;28;20597;-61
2023/10/04 10:35:57;;;;;;;0.00;0.00;;;21.30;92.90;;;;;;5092022;28;20569;-62
2023/10/04 10:38:49;;;;;;;0.00;0.00;;;21.30;93.20;;;;;;5091790;28;20231;-61
2023/10/04 10:41:27;;;;;;;0.00;0.00;;;21.50;93.00;;;;;;5091447;28;20210;-61
2023/10/04 10:44:19;;;;;;;0.00;0.00;;;21.70;92.80;;;;;;5091712;28;20176;-61
2023/10/04 10:47:08;;;;;;;0.00;0.00;;;21.90;91.40;;;;;;5090577;28;20191;-61
2023/10/04 10:49:44;;;;;;;0.00;0.00;;;22.00;91.20;;;;;;5091552;28;20172;-62
2023/10/04 10:52:23;;;;;;;0.00;0.00;;;22.10;91.40;;;;;;5091716;28;20535;-61
2023/10/04 10:54:50;;;;;;;0.00;0.00;;;21.90;91.50;;;;;;5091494;28;20573;-61
2023/10/04 10:57:18;;;;;;;0.00;0.00;;;21.80;90.80;;;;;;5091473;28;20177;-60
2023/10/04 10:59:46;;;;;;;0.00;0.00;;;21.80;90.90;;;;;;5091459;28;20675;-60
2023/10/04 11:02:12;;;;;;;0.00;0.00;;;21.60;90.70;;;;;;5091551;28;20176;-60
2023/10/04 11:04:37;;;;;;;0.00;0.00;;;21.70;90.10;;;;;;5091453;28;20187;-62
2023/10/04 11:07:04;;;;;;;0.00;0.00;;;21.80;91.20;;;;;;5091560;28;20194;-62
2023/10/04 11:09:37;;;;;;;0.00;0.00;;;22.00;91.00;;;;;;5091487;28;20172;-62
2023/10/04 11:12:06;;;;;;;0.00;0.00;;;22.30;90.10;;;;;;5091606;28;20176;-62
2023/10/04 11:14:34;;;;;;;0.00;0.00;;;22.50;89.50;;;;;;5091337;28;20662;-61
2023/10/04 11:17:00;;;;;;;0.10;0.10;;;22.70;88.90;;;;;;5091363;28;20176;-60
2023/10/04 11:19:26;;;;;;;0.00;0.00;;;22.70;88.30;;;;;;5091357;28;20192;-62
2023/10/04 11:21:51;;;;;;;0.00;0.00;;;22.80;86.20;;;;;;5091403;28;20611;-61
2023/10/04 11:24:17;;;;;;;0.00;0.00;;;22.90;85.40;;;;;;5091364;28;20177;-62
2023/10/04 11:26:43;;;;;;;0.00;0.00;;;23.10;86.80;;;;;;5091172;28;20172;-60
2023/10/04 11:29:09;;;;;;;0.00;0.00;;;23.20;83.30;;;;;;5091315;28;20168;-61
2023/10/04 11:31:36;;;;;;;0.00;0.00;;;23.00;81.70;;;;;;5090983;28;20188;-60
2023/10/04 11:34:04;;;;;;;0.00;0.00;;;23.00;83.30;;;;;;5094958;28;20168;-61
2023/10/04 11:36:34;;;;;;;0.00;0.00;;;23.00;82.90;;;;;;5095226;28;20247;-61
2023/10/04 11:38:59;;;;;;;0.00;0.00;;;23.00;82.60;;;;;;5094981;28;20220;-61
2023/10/04 11:41:29;;;;;;;0.00;0.00;;;22.70;83.80;;;;;;5095115;28;20176;-61
2023/10/04 11:44:02;;;;;;;0.00;0.00;;;22.50;83.20;;;;;;5094888;28;20180;-62
2023/10/04 11:46:28;;;;;;;0.00;0.00;;;22.40;85.00;;;;;;5095073;28;20205;-61
2023/10/04 11:49:11;;;;;;;0.00;0.00;;;22.10;85.10;;;;;;5094888;28;20172;-60
2023/10/04 11:51:39;;;;;;;0.00;0.00;;;21.80;85.10;;;;;;5094795;28;20168;-61
2023/10/04 11:54:05;;;;;;;0.00;0.00;;;21.40;84.90;;;;;;5094956;28;20184;-60
2023/10/04 11:56:39;;;;;;;0.00;0.00;;;21.10;84.60;;;;;;5094676;28;20221;-60
2023/10/04 11:59:04;;;;;;;0.00;0.00;;;21.00;85.70;;;;;;5094784;28;20729;-60
2023/10/04 12:01:30;;;;;;;0.00;0.00;;;20.90;86.10;;;;;;5094519;28;20177;-60
2023/10/04 12:03:59;;;;;;;0.00;0.00;;;20.90;86.90;;;;;;5094599;28;20180;-60
2023/10/04 12:06:25;;;;;;;0.00;0.00;;;20.90;86.40;;;;;;5094731;28;20251;-60
2023/10/04 12:08:53;;;;;;;0.00;0.00;;;20.80;83.90;;;;;;5094660;28;20249;-60
2023/10/04 12:11:22;;;;;;;0.00;0.00;;;20.80;81.80;;;;;;5094539;28;20176;-60
2023/10/04 12:13:49;;;;;;;0.00;0.00;;;20.80;82.30;;;;;;5094434;28;20682;-60
2023/10/04 12:16:15;;;;;;;0.00;0.00;;;21.00;85.70;;;;;;5093156;28;20188;-60
2023/10/04 12:18:42;;;;;;;0.00;0.00;;;21.20;83.80;;;;;;5094473;28;20293;-61
2023/10/04 12:21:08;;;;;;;0.00;0.00;;;21.10;81.40;;;;;;5093096;28;20215;-60
2023/10/04 12:23:33;;;;;;;0.00;0.00;;;21.10;81.50;;;;;;5094276;28;20536;-60
2023/10/04 12:25:59;;;;;;;0.00;0.00;;;21.10;82.00;;;;;;5094337;28;20184;-60
2023/10/04 12:28:29;;;;;;;0.00;0.00;;;21.30;82.30;;;;;;5094258;28;20271;-60
2023/10/04 12:31:02;;;;;;;0.00;0.00;;;21.50;82.50;;;;;;5094040;28;20229;-61
2023/10/04 12:33:34;;;;;;;0.00;0.00;;;21.60;82.60;;;;;;5094368;28;20180;-61
2023/10/04 12:36:00;;;;;;;0.00;0.00;;;21.80;82.50;;;;;;5094319;28;20180;-60
2023/10/04 12:38:26;;;;;;;0.00;0.00;;;21.80;80.80;;;;;;5094093;28;20710;-60
2023/10/04 12:40:52;;;;;;;0.00;0.00;;;22.10;82.30;;;;;;5093976;28;20216;-60
2023/10/04 12:43:18;;;;;;;0.00;0.00;;;22.30;78.70;;;;;;5092441;28;20168;-60
2023/10/04 12:45:46;;;;;;;0.00;0.00;;;22.50;79.40;;;;;;5093225;28;20668;-61
2023/10/04 12:48:16;;;;;;;0.10;0.10;;;22.60;78.80;;;;;;5093932;28;20184;-60
2023/10/04 12:50:45;;;;;;;0.00;0.00;;;22.50;79.20;;;;;;5093912;28;20543;-61
2023/10/04 12:53:11;;;;;;;0.00;0.00;;;22.40;78.80;;;;;;5093930;28;20168;-60
2023/10/04 12:55:37;;;;;;;0.00;0.00;;;22.40;77.80;;;;;;5093967;28;20553;-61
2023/10/04 12:58:04;;;;;;;0.00;0.00;;;22.30;78.10;;;;;;5093773;28;20217;-61